Time;durP1;ratioP1;P1;durP2;ratioP2;P2;SDS_P1;SDS_P2;PMS_P1;PMS_P2;Temp;Humidity;BMP_temperature;BMP_pressure;BME280_temperature;BME280_humidity;BME280_pressure;Samples;Min_cycle;Max_cycle;Signal;HPM_P1;HPM_P2
2022/08/29 00:01:07;;;;;;;9.10;7.10;;;16.90;99.90;;;;;;5069724;28;20029;-72
2022/08/29 00:03:35;;;;;;;9.05;6.93;;;16.80;99.90;;;;;;5071660;28;20475;-72
2022/08/29 00:06:01;;;;;;;8.95;6.90;;;16.80;99.90;;;;;;5070848;28;20036;-72
2022/08/29 00:08:27;;;;;;;9.07;7.03;;;16.80;99.90;;;;;;5068722;28;20037;-73
2022/08/29 00:10:53;;;;;;;9.00;7.53;;;16.70;99.90;;;;;;5070524;28;20073;-73
2022/08/29 00:13:20;;;;;;;9.50;7.22;;;16.80;99.90;;;;;;5071631;28;20048;-72
2022/08/29 00:15:45;;;;;;;9.90;7.75;;;16.80;99.90;;;;;;5071677;28;20107;-72
2022/08/29 00:18:13;;;;;;;7.90;7.15;;;16.80;99.90;;;;;;5069301;28;20032;-73
2022/08/29 00:20:39;;;;;;;11.50;7.45;;;16.80;99.90;;;;;;5071570;28;20035;-72
2022/08/29 00:23:05;;;;;;;11.70;8.02;;;16.80;99.90;;;;;;5070542;28;20099;-72
2022/08/29 00:25:31;;;;;;;10.30;7.45;;;16.80;99.90;;;;;;5071401;28;20465;-72
2022/08/29 00:27:57;;;;;;;8.07;7.25;;;16.70;99.90;;;;;;5070769;28;20036;-72
2022/08/29 00:30:24;;;;;;;11.38;7.82;;;16.70;99.90;;;;;;5071615;28;20028;-72
2022/08/29 00:32:50;;;;;;;10.65;8.30;;;16.60;99.90;;;;;;5071479;28;20035;-72
2022/08/29 00:35:23;;;;;;;12.82;7.93;;;16.60;99.90;;;;;;5069153;28;20037;-71
2022/08/29 00:37:50;;;;;;;9.65;7.57;;;16.60;99.90;;;;;;5067746;28;20028;-72
2022/08/29 00:40:20;;;;;;;10.73;8.55;;;16.50;99.90;;;;;;5060349;27;20274;-72
2022/08/29 00:42:46;;;;;;;9.63;8.37;;;16.50;99.90;;;;;;5051102;28;20124;-72
2022/08/29 00:45:13;;;;;;;9.60;7.32;;;16.50;99.90;;;;;;5050565;28;20030;-72
2022/08/29 00:47:44;;;;;;;12.73;8.85;;;16.60;99.90;;;;;;5051168;28;20422;-72
2022/08/29 00:50:21;;;;;;;10.60;8.25;;;16.50;99.90;;;;;;5048768;28;20025;-72
2022/08/29 00:52:47;;;;;;;9.90;7.75;;;16.50;99.90;;;;;;5051173;28;20099;-71
2022/08/29 00:55:20;;;;;;;10.02;8.00;;;16.50;99.90;;;;;;5050479;28;20454;-72
2022/08/29 00:57:53;;;;;;;10.73;8.60;;;16.50;99.90;;;;;;5051251;28;20478;-72
2022/08/29 01:00:19;;;;;;;8.85;7.72;;;16.50;99.90;;;;;;5050454;28;20112;-72
2022/08/29 01:02:46;;;;;;;11.10;7.55;;;16.40;99.90;;;;;;5051340;28;20464;-72
2022/08/29 01:05:16;;;;;;;10.98;7.97;;;16.40;99.90;;;;;;5043845;28;20041;-72
2022/08/29 01:07:42;;;;;;;10.87;8.63;;;16.40;99.90;;;;;;5049692;28;20036;-72
2022/08/29 01:10:09;;;;;;;8.25;7.25;;;16.40;99.90;;;;;;5045713;28;20100;-72
2022/08/29 01:12:35;;;;;;;10.93;7.25;;;16.30;99.90;;;;;;5054770;28;20064;-71
2022/08/29 01:15:08;;;;;;;9.68;7.90;;;16.30;99.90;;;;;;5054119;28;20040;-71
2022/08/29 01:17:39;;;;;;;9.38;7.60;;;16.20;99.90;;;;;;5053393;28;20032;-71
2022/08/29 01:20:13;;;;;;;11.93;8.82;;;16.20;99.90;;;;;;5052578;28;20712;-72
2022/08/29 01:22:59;;;;;;;8.57;7.68;;;16.20;99.90;;;;;;5054465;28;20112;-72
2022/08/29 01:25:30;;;;;;;12.82;8.25;;;16.20;99.90;;;;;;5054449;28;20128;-72
2022/08/29 01:28:04;;;;;;;11.88;8.73;;;16.20;99.90;;;;;;5054285;28;20029;-72
2022/08/29 01:30:30;;;;;;;11.25;8.30;;;16.10;99.90;;;;;;5054437;28;20037;-71
2022/08/29 01:32:56;;;;;;;9.63;7.68;;;16.10;99.90;;;;;;5054187;28;20029;-71
2022/08/29 01:35:24;;;;;;;11.32;8.75;;;16.10;99.90;;;;;;5053743;28;20021;-71
2022/08/29 01:37:50;;;;;;;12.65;8.25;;;16.10;99.90;;;;;;5039653;28;20113;-71
2022/08/29 01:40:15;;;;;;;10.20;8.60;;;16.10;99.90;;;;;;5044034;28;20152;-71
2022/08/29 01:42:41;;;;;;;11.98;9.07;;;16.00;99.90;;;;;;5054063;28;20416;-71
2022/08/29 01:45:08;;;;;;;9.70;8.70;;;16.00;99.90;;;;;;5053294;28;20095;-71
2022/08/29 01:47:34;;;;;;;12.07;9.52;;;16.00;99.90;;;;;;5054023;28;20389;-71
2022/08/29 01:50:03;;;;;;;14.00;9.57;;;16.00;99.90;;;;;;5053404;28;20037;-71
2022/08/29 01:52:30;;;;;;;10.88;8.50;;;15.90;99.90;;;;;;5053457;28;20036;-71
2022/08/29 01:54:56;;;;;;;11.10;9.68;;;15.90;99.90;;;;;;5064737;28;20381;-71
2022/08/29 01:57:22;;;;;;;13.05;10.38;;;15.90;99.90;;;;;;5073123;28;20032;-71
2022/08/29 01:59:48;;;;;;;13.82;9.85;;;15.90;99.90;;;;;;5073774;28;20109;-72
2022/08/29 02:02:19;;;;;;;11.18;9.32;;;15.80;99.90;;;;;;5072576;28;20530;-71
2022/08/29 02:04:47;;;;;;;12.68;10.05;;;15.80;99.90;;;;;;5073817;28;20024;-71
2022/08/29 02:07:16;;;;;;;10.43;9.07;;;15.80;99.90;;;;;;5070068;28;20530;-71
2022/08/29 02:09:42;;;;;;;10.50;9.23;;;15.70;99.90;;;;;;5072090;28;20033;-71
2022/08/29 02:12:09;;;;;;;11.10;9.75;;;15.70;99.90;;;;;;5072662;28;20173;-71
2022/08/29 02:14:35;;;;;;;10.32;9.02;;;15.70;99.90;;;;;;5073432;28;20492;-71
2022/08/29 02:17:04;;;;;;;10.43;8.57;;;15.60;99.90;;;;;;5072524;28;20027;-71
2022/08/29 02:19:31;;;;;;;12.30;10.30;;;15.60;99.90;;;;;;5073118;28;20032;-72
2022/08/29 02:21:58;;;;;;;14.93;10.43;;;15.60;99.90;;;;;;5072978;28;20024;-72
2022/08/29 02:24:24;;;;;;;14.25;9.93;;;15.60;99.90;;;;;;5072748;28;20036;-72
2022/08/29 02:26:50;;;;;;;11.55;9.88;;;15.60;99.90;;;;;;5072167;28;20029;-72
2022/08/29 02:29:15;;;;;;;11.02;9.82;;;15.60;99.90;;;;;;5072477;28;20103;-72
2022/08/29 02:31:42;;;;;;;11.80;9.75;;;15.60;99.90;;;;;;5073167;28;20024;-71
2022/08/29 02:34:09;;;;;;;17.85;10.80;;;15.60;99.90;;;;;;5072414;28;20021;-73
2022/08/29 02:36:36;;;;;;;10.70;9.60;;;15.50;99.90;;;;;;5070950;28;20021;-72
2022/08/29 02:39:02;;;;;;;12.68;10.43;;;15.50;99.90;;;;;;5072728;28;20031;-73
2022/08/29 02:41:28;;;;;;;15.70;10.55;;;15.50;99.90;;;;;;5072717;28;20040;-72
2022/08/29 02:43:54;;;;;;;17.42;10.95;;;15.60;99.90;;;;;;5071487;28;20033;-72
2022/08/29 02:46:19;;;;;;;16.13;10.55;;;15.50;99.90;;;;;;5071499;28;20101;-73
2022/08/29 02:48:46;;;;;;;13.27;9.70;;;15.50;99.90;;;;;;5072944;28;20039;-73
2022/08/29 02:51:26;;;;;;;16.73;11.27;;;15.50;99.90;;;;;;5054073;28;20119;-72
2022/08/29 02:53:52;;;;;;;13.18;10.10;;;15.50;99.90;;;;;;5072717;28;20032;-73
2022/08/29 02:56:18;;;;;;;12.95;10.00;;;15.50;99.90;;;;;;5071640;28;20036;-72
2022/08/29 02:58:45;;;;;;;12.23;10.15;;;15.50;99.90;;;;;;5071577;28;20031;-72
2022/08/29 03:01:10;;;;;;;13.15;11.45;;;15.50;99.90;;;;;;5071862;28;20060;-72
2022/08/29 03:03:36;;;;;;;16.05;11.35;;;15.40;99.90;;;;;;5072592;28;20497;-71
2022/08/29 03:06:02;;;;;;;17.38;11.55;;;15.40;99.90;;;;;;5072198;28;20029;-72
2022/08/29 03:08:28;;;;;;;11.98;10.45;;;15.40;99.90;;;;;;5070995;28;20025;-72
2022/08/29 03:10:54;;;;;;;13.55;11.05;;;15.30;99.90;;;;;;5072091;28;20040;-71
2022/08/29 03:13:19;;;;;;;16.75;12.13;;;15.40;99.90;;;;;;5071570;28;20086;-72
2022/08/29 03:15:46;;;;;;;12.90;11.30;;;15.30;99.90;;;;;;5071285;28;20112;-72
2022/08/29 03:18:13;;;;;;;15.40;11.43;;;15.30;99.90;;;;;;5071551;28;20035;-71
2022/08/29 03:20:40;;;;;;;15.52;11.73;;;15.30;99.90;;;;;;5072388;28;20036;-71
2022/08/29 03:23:06;;;;;;;12.07;10.75;;;15.30;99.90;;;;;;5071242;28;20036;-72
2022/08/29 03:25:32;;;;;;;15.07;11.23;;;15.30;99.90;;;;;;5072371;28;20035;-72
2022/08/29 03:27:58;;;;;;;16.00;11.73;;;15.20;99.90;;;;;;5072075;28;20020;-71
2022/08/29 03:30:25;;;;;;;13.48;11.43;;;15.20;99.90;;;;;;5070846;28;20611;-71
2022/08/29 03:32:51;;;;;;;15.52;12.95;;;15.20;99.90;;;;;;5070762;28;20025;-73
2022/08/29 03:35:18;;;;;;;12.60;11.32;;;15.20;99.90;;;;;;5071374;28;20029;-73
2022/08/29 03:37:44;;;;;;;13.95;11.93;;;15.20;99.90;;;;;;5071349;28;20060;-72
2022/08/29 03:40:11;;;;;;;15.07;12.80;;;15.20;99.90;;;;;;5071344;28;20501;-72
2022/08/29 03:42:38;;;;;;;13.00;11.30;;;15.10;99.90;;;;;;5071658;28;20035;-72
2022/08/29 03:45:06;;;;;;;14.18;11.43;;;15.20;99.90;;;;;;5071000;28;20028;-71
2022/08/29 03:47:32;;;;;;;14.63;13.07;;;15.10;99.90;;;;;;5072034;28;20082;-71
2022/08/29 03:49:57;;;;;;;19.52;12.80;;;15.10;99.90;;;;;;5070197;28;20024;-71
2022/08/29 03:52:23;;;;;;;14.55;12.75;;;15.10;99.90;;;;;;5071207;28;20024;-74
2022/08/29 03:54:49;;;;;;;18.77;12.93;;;15.10;99.90;;;;;;5054086;28;20030;-73
2022/08/29 03:57:14;;;;;;;14.57;12.43;;;15.10;99.90;;;;;;5070921;28;20058;-72
2022/08/29 03:59:41;;;;;;;17.20;13.55;;;15.00;99.90;;;;;;5071759;28;20032;-73
2022/08/29 04:02:07;;;;;;;17.25;13.25;;;15.00;99.90;;;;;;5071027;28;20033;-71
2022/08/29 04:07:17;;;;;;;17.85;13.68;;;15.00;99.90;;;;;;5069509;28;20035;-72
2022/08/29 04:09:43;;;;;;;18.23;14.27;;;15.00;99.90;;;;;;5071908;28;20381;-72
2022/08/29 04:12:10;;;;;;;15.13;13.07;;;15.00;99.90;;;;;;5070557;28;20025;-71
2022/08/29 04:14:39;;;;;;;17.63;13.13;;;14.90;99.90;;;;;;5071769;28;20028;-72
2022/08/29 04:17:07;;;;;;;16.88;15.00;;;15.00;99.90;;;;;;5071202;28;20028;-72
2022/08/29 04:19:34;;;;;;;15.73;14.00;;;14.90;99.90;;;;;;5071242;28;20074;-72
2022/08/29 04:22:00;;;;;;;17.92;14.90;;;14.90;99.90;;;;;;5070243;28;20462;-72
2022/08/29 04:24:25;;;;;;;16.73;14.38;;;14.90;99.90;;;;;;5070792;28;20098;-72
2022/08/29 04:26:51;;;;;;;15.13;12.98;;;14.90;99.90;;;;;;5071550;28;20024;-72
2022/08/29 04:29:17;;;;;;;14.05;12.65;;;;;;;;;;5070317;28;20422;-71
2022/08/29 04:31:43;;;;;;;18.80;14.45;;;14.90;99.90;;;;;;5071588;28;20056;-71
2022/08/29 04:34:11;;;;;;;18.98;14.82;;;14.90;99.90;;;;;;5070711;28;20060;-70
2022/08/29 04:36:43;;;;;;;15.68;14.00;;;14.90;99.90;;;;;;5069705;28;20020;-71
2022/08/29 04:39:09;;;;;;;16.85;14.45;;;14.90;99.90;;;;;;5070139;28;20029;-71
2022/08/29 04:41:36;;;;;;;16.30;13.70;;;14.90;99.90;;;;;;5052617;28;20065;-71
2022/08/29 04:44:02;;;;;;;17.00;14.35;;;14.80;99.90;;;;;;5054968;28;20124;-71
2022/08/29 04:46:28;;;;;;;18.13;14.45;;;14.80;99.90;;;;;;5053575;28;20521;-72
2022/08/29 04:48:53;;;;;;;16.65;13.93;;;14.80;99.90;;;;;;5054866;28;20059;-72
2022/08/29 04:51:20;;;;;;;21.55;14.05;;;14.80;99.90;;;;;;5054447;28;20029;-73
2022/08/29 04:53:47;;;;;;;15.63;14.02;;;14.70;99.90;;;;;;5055121;28;20033;-73
2022/08/29 04:56:13;;;;;;;15.68;13.23;;;14.70;99.90;;;;;;5054086;28;20021;-72
2022/08/29 04:58:41;;;;;;;14.35;12.85;;;14.70;99.90;;;;;;5053206;28;20056;-72
2022/08/29 05:01:07;;;;;;;17.00;14.30;;;14.70;99.90;;;;;;5054769;28;20029;-72
2022/08/29 05:03:33;;;;;;;16.30;13.45;;;14.70;99.90;;;;;;5054517;28;20055;-73
2022/08/29 05:06:02;;;;;;;16.02;13.23;;;14.70;99.90;;;;;;5054518;28;20530;-73
2022/08/29 05:08:30;;;;;;;15.55;12.82;;;14.70;99.90;;;;;;5051561;28;20041;-73
2022/08/29 05:10:56;;;;;;;13.45;12.05;;;14.70;99.90;;;;;;5054576;28;20064;-73
2022/08/29 05:13:22;;;;;;;13.63;11.98;;;14.80;99.90;;;;;;5052616;28;20130;-72
2022/08/29 05:15:48;;;;;;;18.15;12.55;;;14.80;99.90;;;;;;5054769;28;20029;-75
2022/08/29 05:18:18;;;;;;;13.20;11.70;;;14.80;99.90;;;;;;5054157;28;20155;-73
2022/08/29 05:20:47;;;;;;;14.23;11.50;;;14.80;99.90;;;;;;5053815;28;20025;-72
2022/08/29 05:23:15;;;;;;;15.40;12.27;;;14.90;99.90;;;;;;5054213;28;20078;-71
2022/08/29 05:25:41;;;;;;;16.17;12.10;;;14.90;99.90;;;;;;5054236;28;20028;-73
2022/08/29 05:28:10;;;;;;;20.63;13.73;;;15.00;99.90;;;;;;5049922;28;20017;-71
2022/08/29 05:30:37;;;;;;;14.43;12.20;;;15.10;99.90;;;;;;5052947;28;20025;-73
2022/08/29 05:33:04;;;;;;;15.95;12.65;;;15.20;99.90;;;;;;5051605;28;20052;-71
2022/08/29 05:35:30;;;;;;;18.45;13.25;;;15.30;99.90;;;;;;5047961;28;20021;-71
2022/08/29 05:37:56;;;;;;;15.07;12.05;;;15.30;99.90;;;;;;5052797;28;20043;-72
2022/08/29 05:40:21;;;;;;;14.00;11.80;;;15.40;99.90;;;;;;5048849;28;20044;-72
2022/08/29 05:42:47;;;;;;;12.60;10.48;;;15.50;99.90;;;;;;5044486;28;20035;-73
2022/08/29 05:45:13;;;;;;;15.38;11.77;;;15.60;99.90;;;;;;5051325;28;20036;-71
2022/08/29 05:47:38;;;;;;;14.85;11.93;;;15.70;99.90;;;;;;5052425;28;20040;-74
2022/08/29 05:50:06;;;;;;;15.30;11.32;;;15.80;99.90;;;;;;5053631;28;20029;-72
2022/08/29 05:52:32;;;;;;;11.98;10.55;;;15.80;99.90;;;;;;5053148;28;20089;-72
2022/08/29 05:54:58;;;;;;;14.63;10.77;;;15.90;99.90;;;;;;5053141;28;20033;-72
2022/08/29 05:57:24;;;;;;;15.15;10.63;;;16.00;99.90;;;;;;5033960;28;20029;-72
2022/08/29 05:59:51;;;;;;;13.18;9.68;;;16.00;99.90;;;;;;5053504;28;20032;-76
2022/08/29 06:02:18;;;;;;;15.85;10.05;;;16.10;99.90;;;;;;5052902;28;20048;-74
2022/08/29 06:04:44;;;;;;;13.15;10.10;;;16.20;99.90;;;;;;5052232;28;20037;-74
2022/08/29 06:07:11;;;;;;;12.20;9.00;;;16.30;99.90;;;;;;5051107;28;20051;-73
2022/08/29 06:09:39;;;;;;;15.32;9.18;;;16.40;99.90;;;;;;5051557;28;20029;-75
2022/08/29 06:12:05;;;;;;;15.57;10.90;;;16.50;99.90;;;;;;5047055;28;20029;-77
2022/08/29 06:14:31;;;;;;;16.70;11.18;;;16.50;99.90;;;;;;5042343;28;20035;-74
2022/08/29 06:16:57;;;;;;;15.15;9.95;;;16.70;99.90;;;;;;5048280;28;20029;-75
2022/08/29 06:19:23;;;;;;;17.20;10.70;;;16.70;99.90;;;;;;5051929;28;20083;-74
2022/08/29 06:21:49;;;;;;;15.10;10.43;;;16.80;99.90;;;;;;5052972;28;20025;-73
2022/08/29 06:24:15;;;;;;;20.52;10.35;;;17.00;99.90;;;;;;5043350;28;20040;-73
2022/08/29 06:26:44;;;;;;;17.50;9.95;;;17.00;99.90;;;;;;5049927;28;20091;-74
2022/08/29 06:29:10;;;;;;;15.68;10.35;;;17.20;99.90;;;;;;5052100;28;20021;-71
2022/08/29 06:31:37;;;;;;;14.48;10.30;;;17.30;99.90;;;;;;5052516;28;20057;-77
2022/08/29 06:34:05;;;;;;;15.25;10.73;;;17.40;99.90;;;;;;5049219;28;21315;-74
2022/08/29 06:36:32;;;;;;;15.57;10.77;;;17.60;99.90;;;;;;5032904;28;20027;-75
2022/08/29 06:39:01;;;;;;;16.77;11.88;;;17.70;99.90;;;;;;5040259;28;20087;-74
2022/08/29 06:41:28;;;;;;;16.63;11.32;;;17.90;99.90;;;;;;5070207;28;20044;-74
2022/08/29 06:43:55;;;;;;;25.10;12.57;;;18.00;99.90;;;;;;5072946;28;20047;-75
2022/08/29 06:46:33;;;;;;;17.08;12.45;;;18.10;99.90;;;;;;5071386;28;20060;-75
2022/08/29 06:49:00;;;;;;;16.33;11.27;;;18.20;99.90;;;;;;5072053;28;20054;-75
2022/08/29 06:51:31;;;;;;;19.50;12.30;;;18.30;99.90;;;;;;5055072;28;20373;-75
2022/08/29 06:53:58;;;;;;;18.55;12.05;;;18.40;99.90;;;;;;5082383;28;20088;-75
2022/08/29 06:56:24;;;;;;;14.20;11.13;;;18.50;99.90;;;;;;5084703;28;20048;-75
2022/08/29 06:58:49;;;;;;;14.32;11.32;;;18.60;99.90;;;;;;5090814;28;20017;-74
2022/08/29 07:01:17;;;;;;;16.10;10.98;;;18.70;99.90;;;;;;5090280;28;20035;-75
2022/08/29 07:03:43;;;;;;;16.00;11.57;;;18.80;99.90;;;;;;5090838;28;20052;-77
2022/08/29 07:06:10;;;;;;;18.85;10.70;;;18.80;99.90;;;;;;5088490;28;20028;-75
2022/08/29 07:08:36;;;;;;;16.15;10.60;;;18.90;99.90;;;;;;5085917;28;20032;-73
2022/08/29 07:11:02;;;;;;;13.57;10.25;;;19.00;99.90;;;;;;5079617;28;20029;-74
2022/08/29 07:13:28;;;;;;;19.30;13.23;;;19.10;99.90;;;;;;5076172;28;20465;-75
2022/08/29 07:15:53;;;;;;;38.72;22.42;;;19.20;99.90;;;;;;5072185;28;20027;-74
2022/08/29 07:18:20;;;;;;;18.80;14.45;;;19.30;99.90;;;;;;5071377;28;20078;-74
2022/08/29 07:20:46;;;;;;;24.30;13.68;;;19.30;99.90;;;;;;5071897;28;20036;-76
2022/08/29 07:23:11;;;;;;;18.35;12.32;;;19.30;99.90;;;;;;5071323;28;20036;-73
2022/08/29 07:25:37;;;;;;;17.50;11.85;;;19.50;99.90;;;;;;5071710;28;20028;-75
2022/08/29 07:28:04;;;;;;;22.52;12.57;;;19.50;99.90;;;;;;5072126;28;20099;-77
2022/08/29 07:30:30;;;;;;;16.15;11.55;;;19.50;99.90;;;;;;5070553;28;20132;-76
2022/08/29 07:32:56;;;;;;;17.17;12.30;;;19.60;99.90;;;;;;5071601;28;20111;-76
2022/08/29 07:35:22;;;;;;;23.17;13.32;;;19.70;99.90;;;;;;5070577;28;20048;-75
2022/08/29 07:37:47;;;;;;;16.90;12.10;;;19.80;99.90;;;;;;5071603;28;20444;-76
2022/08/29 07:40:16;;;;;;;16.67;12.35;;;19.70;99.90;;;;;;5069806;28;20090;-74
2022/08/29 07:42:42;;;;;;;17.92;12.65;;;19.80;99.90;;;;;;5071119;28;20028;-75
2022/08/29 07:45:10;;;;;;;24.92;13.15;;;19.90;99.90;;;;;;5071230;28;20074;-74
2022/08/29 07:47:36;;;;;;;17.15;13.32;;;20.00;99.90;;;;;;5070684;28;20074;-75
2022/08/29 07:50:05;;;;;;;22.25;13.27;;;20.00;99.90;;;;;;5071427;28;20488;-75
2022/08/29 07:52:31;;;;;;;17.10;12.05;;;20.10;99.90;;;;;;5070067;28;20086;-76
2022/08/29 07:54:57;;;;;;;14.00;11.23;;;20.30;99.90;;;;;;5071701;28;20028;-77
2022/08/29 07:57:23;;;;;;;21.52;12.80;;;20.40;99.90;;;;;;5070376;28;20019;-75
2022/08/29 07:59:49;;;;;;;19.90;12.07;;;20.50;99.90;;;;;;5071440;28;20021;-76
2022/08/29 08:02:15;;;;;;;21.30;12.95;;;20.60;99.90;;;;;;5070221;28;20047;-75
2022/08/29 08:04:41;;;;;;;22.83;12.60;;;20.70;99.90;;;;;;5071404;28;20037;-76
2022/08/29 08:07:07;;;;;;;18.08;11.60;;;20.80;99.90;;;;;;5069240;28;20029;-77
2022/08/29 08:09:33;;;;;;;16.02;10.27;;;20.80;99.90;;;;;;5063344;28;20020;-77
2022/08/29 08:12:00;;;;;;;14.48;10.18;;;20.90;99.90;;;;;;5064626;28;20027;-72
2022/08/29 08:14:25;;;;;;;13.85;10.65;;;20.90;99.90;;;;;;5057303;28;20032;-72
2022/08/29 08:16:51;;;;;;;15.25;11.52;;;20.90;99.90;;;;;;5060857;28;20016;-72
2022/08/29 08:19:17;;;;;;;16.00;10.63;;;21.00;99.90;;;;;;5068615;28;20032;-72
2022/08/29 08:21:43;;;;;;;20.50;11.50;;;21.20;99.90;;;;;;5074207;28;20362;-72
2022/08/29 08:24:09;;;;;;;15.80;11.63;;;21.30;99.90;;;;;;5074982;28;20025;-72
2022/08/29 08:26:35;;;;;;;18.83;11.10;;;21.30;99.90;;;;;;5072179;28;20040;-72
2022/08/29 08:29:02;;;;;;;13.68;9.73;;;21.50;99.90;;;;;;5069109;28;20477;-73
2022/08/29 08:31:28;;;;;;;15.63;9.75;;;21.50;99.90;;;;;;5067404;28;20112;-73
2022/08/29 08:33:55;;;;;;;17.92;10.32;;;21.50;99.90;;;;;;5066931;28;20448;-73
2022/08/29 08:36:29;;;;;;;18.42;11.27;;;21.60;99.90;;;;;;5073869;28;20028;-72
2022/08/29 08:38:57;;;;;;;16.48;10.70;;;21.80;99.90;;;;;;5074775;28;20123;-72
2022/08/29 08:41:22;;;;;;;13.13;9.50;;;21.90;99.90;;;;;;5067403;28;20049;-72
2022/08/29 08:43:54;;;;;;;10.43;8.20;;;21.90;99.90;;;;;;5064590;28;20090;-72
2022/08/29 08:46:53;;;;;;;15.65;9.40;;;22.00;99.90;;;;;;5059491;28;20466;-72
2022/08/29 08:49:28;;;;;;;10.30;8.30;;;22.20;99.90;;;;;;5042364;28;20393;-72
2022/08/29 08:52:00;;;;;;;13.48;8.75;;;22.30;99.90;;;;;;5064553;28;20028;-73
2022/08/29 08:54:30;;;;;;;15.98;9.63;;;22.50;99.90;;;;;;5065521;28;20463;-72
2022/08/29 08:57:09;;;;;;;12.63;8.38;;;22.60;99.90;;;;;;5070804;28;20029;-72
2022/08/29 08:59:41;;;;;;;17.67;9.88;;;22.70;99.90;;;;;;5061717;28;20051;-72
2022/08/29 09:02:13;;;;;;;19.85;9.80;;;22.90;99.90;;;;;;5062133;28;20106;-72
2022/08/29 09:05:10;;;;;;;13.15;9.45;;;23.00;99.90;;;;;;5064554;28;20099;-73
2022/08/29 09:07:40;;;;;;;18.88;9.43;;;23.00;99.90;;;;;;5061530;28;20089;-72
2022/08/29 09:10:15;;;;;;;13.48;8.90;;;23.10;99.90;;;;;;5062362;28;20484;-72
2022/08/29 09:12:40;;;;;;;12.57;8.52;;;23.10;99.90;;;;;;5057503;28;20037;-72
2022/08/29 09:15:13;;;;;;;15.85;9.77;;;23.30;99.90;;;;;;5070477;28;20476;-72
2022/08/29 09:18:10;;;;;;;7.82;6.97;;;23.40;99.90;;;;;;5062265;28;20457;-72
2022/08/29 09:20:38;;;;;;;10.95;6.15;;;23.50;99.90;;;;;;5052532;28;20124;-72
2022/08/29 09:23:26;;;;;;;13.57;8.38;;;23.60;99.90;;;;;;5057170;28;20029;-72
2022/08/29 09:25:51;;;;;;;10.70;7.57;;;23.80;99.90;;;;;;5072587;28;20033;-73
2022/08/29 09:28:17;;;;;;;14.65;7.47;;;23.80;99.90;;;;;;5040073;28;20029;-72
2022/08/29 09:31:04;;;;;;;12.48;7.47;;;23.90;99.90;;;;;;5070478;28;20073;-72
2022/08/29 09:33:45;;;;;;;12.43;8.88;;;24.00;99.90;;;;;;5059874;28;20077;-72
2022/08/29 09:36:31;;;;;;;11.65;7.30;;;24.20;99.90;;;;;;5060830;28;20036;-72
2022/08/29 09:39:08;;;;;;;10.63;7.32;;;24.20;99.90;;;;;;5064426;28;20032;-72
2022/08/29 09:41:34;;;;;;;10.63;7.20;;;24.30;99.90;;;;;;5053636;28;20048;-72
2022/08/29 09:44:00;;;;;;;11.70;8.07;;;24.40;99.90;;;;;;5053578;28;20432;-72
2022/08/29 09:46:25;;;;;;;14.25;8.02;;;24.50;99.90;;;;;;5052327;28;20036;-72
2022/08/29 09:49:16;;;;;;;11.20;7.13;;;24.50;99.90;;;;;;5053397;28;20029;-72
2022/08/29 09:51:47;;;;;;;11.18;8.00;;;24.50;99.90;;;;;;5053367;28;20100;-72
2022/08/29 09:54:27;;;;;;;9.45;6.93;;;24.50;99.90;;;;;;5053335;28;20037;-72
2022/08/29 09:57:18;;;;;;;9.98;6.97;;;24.50;99.90;;;;;;5053326;28;20035;-72
2022/08/29 10:00:11;;;;;;;12.18;5.93;;;24.60;99.80;;;;;;5053800;28;20037;-72
2022/08/29 10:02:48;;;;;;;10.85;6.50;;;24.70;99.90;;;;;;5037502;28;20461;-72
2022/08/29 10:05:30;;;;;;;9.38;6.35;;;24.90;99.80;;;;;;5039920;28;20021;-72
2022/08/29 10:07:58;;;;;;;10.52;5.97;;;25.10;99.00;;;;;;5053176;28;20167;-72
2022/08/29 10:10:28;;;;;;;7.72;6.18;;;25.20;99.20;;;;;;5052585;28;20036;-73
2022/08/29 10:13:21;;;;;;;12.30;6.85;;;25.40;98.50;;;;;;5053947;28;20024;-73
2022/08/29 10:16:10;;;;;;;8.90;5.90;;;25.50;97.60;;;;;;5021079;28;20102;-72
2022/08/29 10:18:53;;;;;;;7.33;4.07;;;25.60;96.70;;;;;;5052137;28;20128;-73
2022/08/29 10:21:34;;;;;;;7.93;4.75;;;25.70;95.90;;;;;;5043347;28;20181;-73
2022/08/29 10:24:04;;;;;;;7.82;4.72;;;26.00;95.90;;;;;;5043475;28;20040;-72
2022/08/29 10:26:48;;;;;;;6.03;4.85;;;26.20;95.60;;;;;;5052242;28;20048;-73
2022/08/29 10:29:37;;;;;;;10.27;5.78;;;26.40;94.80;;;;;;5052270;28;20032;-73
2022/08/29 10:32:32;;;;;;;10.43;6.30;;;26.50;94.80;;;;;;5052743;28;20025;-72
2022/08/29 10:35:13;;;;;;;8.98;5.03;;;26.30;95.20;;;;;;5023320;28;20095;-73
2022/08/29 10:37:55;;;;;;;7.38;5.10;;;26.40;94.70;;;;;;5046269;28;20029;-73
2022/08/29 10:40:32;;;;;;;7.53;4.78;;;26.50;94.30;;;;;;5043786;28;20053;-72
2022/08/29 10:43:30;;;;;;;6.75;4.63;;;26.50;94.10;;;;;;5072180;28;20040;-72
2022/08/29 10:46:08;;;;;;;8.52;5.50;;;26.60;94.00;;;;;;5072037;28;20036;-72
2022/08/29 10:48:44;;;;;;;11.32;6.03;;;26.70;94.30;;;;;;5071460;28;20140;-74
2022/08/29 10:51:54;;;;;;;6.95;4.68;;;26.80;94.40;;;;;;5072298;28;20021;-73
2022/08/29 10:54:49;;;;;;;7.43;4.85;;;27.00;93.60;;;;;;5062239;28;20024;-72
2022/08/29 10:57:25;;;;;;;7.75;5.35;;;27.20;92.90;;;;;;5071871;28;20028;-73
2022/08/29 11:00:12;;;;;;;10.98;5.18;;;27.20;92.00;;;;;;5072734;28;20021;-72
2022/08/29 11:02:51;;;;;;;6.70;4.90;;;27.30;91.90;;;;;;5076656;28;20853;-72
2022/08/29 11:05:34;;;;;;;6.68;4.25;;;27.30;90.90;;;;;;5062603;28;20027;-72
2022/08/29 11:08:28;;;;;;;8.00;4.88;;;27.30;90.60;;;;;;5059348;28;20036;-73
2022/08/29 11:10:53;;;;;;;142.35;116.45;;;27.50;90.70;;;;;;5063715;28;20120;-74
2022/08/29 11:13:22;;;;;;;12.00;8.77;;;27.60;90.50;;;;;;5071256;28;20103;-74
2022/08/29 11:16:01;;;;;;;5.13;4.32;;;27.80;90.40;;;;;;5071889;28;20027;-73
2022/08/29 11:18:49;;;;;;;6.88;4.43;;;27.90;90.00;;;;;;5055333;28;20385;-73
2022/08/29 11:21:31;;;;;;;5.88;4.32;;;28.00;89.20;;;;;;5071389;28;20469;-73
2022/08/29 11:23:57;;;;;;;8.32;5.05;;;28.10;89.60;;;;;;5071173;28;20037;-73
2022/08/29 11:26:52;;;;;;;8.20;4.53;;;28.30;88.40;;;;;;5070890;28;20032;-73
2022/08/29 11:29:29;;;;;;;6.38;4.07;;;28.20;86.70;;;;;;5071004;28;20075;-73
2022/08/29 11:32:32;;;;;;;6.90;5.07;;;28.00;87.40;;;;;;5071713;28;20031;-73
2022/08/29 11:35:20;;;;;;;5.47;4.72;;;27.70;87.50;;;;;;5071739;28;20103;-73
2022/08/29 11:37:54;;;;;;;9.15;5.30;;;27.60;88.10;;;;;;5071031;28;20435;-73
2022/08/29 11:40:44;;;;;;;8.75;4.60;;;27.60;87.20;;;;;;5054028;28;20128;-73
2022/08/29 11:43:15;;;;;;;8.40;5.13;;;27.70;87.30;;;;;;5071859;28;20063;-73
2022/08/29 11:45:42;;;;;;;8.65;5.00;;;28.10;86.00;;;;;;5068117;28;20107;-73
2022/08/29 11:48:17;;;;;;;5.85;4.22;;;28.20;86.10;;;;;;5053212;28;20025;-73
2022/08/29 11:50:43;;;;;;;9.27;4.90;;;28.30;86.00;;;;;;5070885;28;20090;-73
2022/08/29 11:53:32;;;;;;;5.45;4.43;;;28.70;83.80;;;;;;5071075;28;20029;-73
2022/08/29 11:56:13;;;;;;;6.10;4.20;;;28.90;82.90;;;;;;5070892;28;20025;-74
2022/08/29 11:58:40;;;;;;;6.65;4.07;;;29.00;82.70;;;;;;5070645;28;20024;-74
2022/08/29 12:01:10;;;;;;;6.75;4.90;;;28.90;81.50;;;;;;5071030;28;20035;-73
2022/08/29 12:03:35;;;;;;;8.38;4.75;;;28.60;81.50;;;;;;5068256;28;20044;-73
2022/08/29 12:06:01;;;;;;;7.63;4.55;;;28.50;81.00;;;;;;5070710;28;20474;-73
2022/08/29 12:08:41;;;;;;;6.72;4.03;;;28.40;81.10;;;;;;5070365;28;20024;-73
2022/08/29 12:11:07;;;;;;;5.32;4.25;;;28.50;81.80;;;;;;5071452;28;20035;-73
2022/08/29 12:13:45;;;;;;;7.57;5.03;;;28.80;81.10;;;;;;5070376;28;20029;-73
2022/08/29 12:16:13;;;;;;;6.40;4.43;;;29.00;80.20;;;;;;5070936;28;20028;-72
2022/08/29 12:18:47;;;;;;;6.35;4.80;;;29.20;80.20;;;;;;5070134;28;20073;-73
2022/08/29 12:21:38;;;;;;;6.85;4.18;;;29.50;78.70;;;;;;5071262;28;20099;-72
2022/08/29 12:24:38;;;;;;;9.77;4.57;;;29.70;79.30;;;;;;5070655;28;20493;-72
2022/08/29 12:27:03;;;;;;;;;;;30.00;77.90;;;;;;5071495;28;20025;-72
2022/08/29 12:29:33;;;;;;;5.85;4.13;;;29.80;76.50;;;;;;5069940;28;19911;-72
2022/08/29 12:32:02;;;;;;;4.70;4.03;;;29.70;76.50;;;;;;5070926;28;20017;-73
2022/08/29 12:34:40;;;;;;;5.90;3.88;;;29.80;76.40;;;;;;5069945;28;20384;-72
2022/08/29 12:37:22;;;;;;;4.70;3.58;;;30.00;75.60;;;;;;5070888;28;20395;-73
2022/08/29 12:40:06;;;;;;;5.32;4.30;;;30.60;74.30;;;;;;5070381;28;20048;-72
2022/08/29 12:42:58;;;;;;;8.07;3.78;;;30.70;74.10;;;;;;5055099;28;20550;-73
2022/08/29 12:45:29;;;;;;;7.40;4.05;;;31.10;73.80;;;;;;5031973;28;20041;-73
2022/08/29 12:48:25;;;;;;;3.60;3.33;;;31.60;72.80;;;;;;5070885;28;20040;-73
2022/08/29 12:50:52;;;;;;;5.68;4.10;;;31.50;71.60;;;;;;5057557;28;20123;-72
2022/08/29 12:53:23;;;;;;;9.25;4.18;;;31.10;71.20;;;;;;5070460;28;20107;-72
2022/08/29 12:55:58;;;;;;;5.65;4.00;;;30.40;72.10;;;;;;5070929;28;20040;-72